Latest Weather Observations for Browse Island

IDW60801

Issued at 4:03 pm WST Thursday 25 August 2016 (issued every 30 minutes, with the page automatically refreshed every 10 minutes)

About weather observations | Map of weather stations | Latest weather observations for WA | Other Formats
Station Details ID: 200784 Name: BROWSE ISLAND Lat: -14.11 Lon: 123.55 Height: 3.7 m
Data from the previous 72 hours. | See also: Recent months at Browse Island
Date/Time
WST
Temp
°C
App
Temp
°C
Dew
Point
°C
Rel
Hum
%
Delta-T
°C
Wind Press
QNH
hPa
Press
MSL
hPa
Rain since
9am
mm
Dir  Spd
km/h
Gust
km/h
Spd
kts
Gust
kts
25/04:00pm 28.5 - - - - ENE 6 7 3 4 1010.0 1010.5 -
25/03:30pm 29.0 - - - - E 7 9 4 5 1010.0 - -
25/03:00pm 28.7 - - - - E 7 - 4 - 1010.0 1010.2 -
25/02:30pm 29.0 - - - - E 7 - 4 - 1010.0 - -
25/02:00pm 28.5 - - - - ESE 9 - 5 - 1010.0 1010.3 -
25/01:30pm 29.0 - - - - ESE 9 - 5 - 1010.0 - -
25/01:00pm 28.1 - - - - SSE 11 - 6 - 1010.0 1010.8 -
25/12:30pm 28.0 - - - - SE 11 - 6 - 1011.0 - -
25/12:00pm 28.6 - - - - SSE 11 - 6 - 1011.0 1011.3 -
25/11:30am 28.0 - - - - SSE 11 - 6 - 1011.0 - -
25/11:00am 27.6 - - - - S 11 - 6 - 1012.0 1012.0 -
25/10:30am 27.0 - - - - S 17 - 9 - 1012.0 - -
25/10:00am 27.3 - - - - S 17 - 9 - 1012.0 1012.4 -
25/09:30am 27.0 - - - - S 17 - 9 - 1012.0 - -
25/09:00am 27.0 - - - - S 19 - 10 - 1012.0 1012.5 -
25/08:30am 27.0 - - - - SSW 20 - 11 - 1012.0 - -
25/08:00am 26.5 - - - - S 17 - 9 - 1012.0 1012.2 -
25/07:30am 26.0 - - - - S 20 - 11 - 1012.0 - -
25/07:00am 26.0 - - - - SW 13 - 7 - 1011.0 1011.8 -
25/06:30am 26.0 - - - - SW 17 - 9 - 1011.0 - -
25/06:00am 25.6 - - - - SW 15 - 8 - 1011.0 1011.2 -
25/05:30am 26.0 - - - - SW 11 - 6 - 1010.0 - -
25/05:00am 25.5 - - - - SW 9 - 5 - 1010.0 1010.5 -
25/04:30am 26.0 - - - - SW 11 - 6 - 1010.0 - -
25/04:00am 25.6 - - - - SSW 13 - 7 - 1010.0 1010.1 -
25/03:30am 26.0 - - - - SSW 13 - 7 - 1010.0 - -
25/03:00am 25.8 - - - - SSW 13 - 7 - 1010.0 1010.2 -
25/02:30am 26.0 - - - - SSW 11 - 6 - 1010.0 - -
25/02:00am 25.7 - - - - SSW 9 - 5 - 1010.0 1010.3 -
25/01:30am 26.0 - - - - SSW 9 - 5 - 1010.0 - -
25/01:00am 25.8 - - - - SSW 9 - 5 - 1010.0 1010.7 -
25/12:30am 26.0 - - - - S 11 - 6 - 1011.0 - -
25/12:00am 26.0 - - - - SSW 9 - 5 - 1011.0 1011.1 -
 
Date/Time
WST
Temp
°C
App
Temp
°C
Dew
Point
°C
Rel
Hum
%
Delta-T
°C
Wind Press
QNH
hPa
Press
MSL
hPa
Rain since
9am
mm
Dir  Spd
km/h
Gust
km/h
Spd
kts
Gust
kts
24/11:30pm 26.0 - - - - S 6 - 3 - 1011.0 - -
24/11:00pm 26.0 - - - - S 9 - 5 - 1011.0 1011.2 -
24/10:30pm 26.0 - - - - S 13 - 7 - 1011.0 - -
24/10:00pm 26.0 - - - - SSE 13 - 7 - 1011.0 1011.4 -
24/09:30pm 26.0 - - - - SSE 11 - 6 - 1011.0 - -
24/09:00pm 26.1 - - - - SSE 13 - 7 - 1011.0 1011.4 -
24/08:30pm 26.0 - - - - SSE 11 - 6 - 1011.0 - -
24/08:00pm 26.1 - - - - SSE 11 - 6 - 1011.0 1011.2 -
24/07:30pm 26.0 - - - - SE 13 - 7 - 1011.0 - -
24/07:00pm 25.9 - - - - SSE 13 - 7 - 1010.0 1010.7 -
24/06:30pm 26.0 - - - - S 15 - 8 - 1010.0 - -
24/06:00pm 25.9 - - - - SSE 17 - 9 - 1010.0 1010.1 -
24/05:30pm 26.0 - - - - S 19 - 10 - 1009.0 - -
24/05:00pm 26.2 - - - - S 17 - 9 - 1009.0 1009.7 -
24/04:30pm 26.0 - - - - S 17 - 9 - 1009.0 - -
24/04:00pm 26.2 - - - - S 19 - 10 - 1009.0 1009.2 -
24/03:30pm 26.0 - - - - S 17 - 9 - 1009.0 - -
24/03:00pm 26.1 - - - - S 17 - 9 - 1009.0 1009.1 -
24/02:30pm 26.0 - - - - S 19 - 10 - 1009.0 - -
24/02:00pm 25.9 - - - - S 20 - 11 - 1009.0 1009.3 -
24/01:30pm 26.0 - - - - S 20 - 11 - 1009.0 - -
24/01:00pm 26.0 - - - - S 17 - 9 - 1010.0 1009.9 -
24/12:30pm 26.0 - - - - S 15 - 8 - 1010.0 - -
24/12:00pm 26.5 - - - - S 11 - 6 - 1011.0 1011.1 -
24/11:30am 26.0 - - - - S 15 - 8 - 1011.0 - -
24/11:00am 26.0 - - - - S 15 - 8 - 1011.0 1011.8 -
24/10:30am 26.0 - - - - S 17 - 9 - 1012.0 - -
24/10:00am 25.9 - - - - S 15 - 8 - 1012.0 1012.2 -
24/09:30am 26.0 - - - - S 17 - 9 - 1012.0 - -
24/09:00am 25.8 - - - - S 13 - 7 - 1012.0 1012.7 -
24/08:30am 26.0 - - - - S 13 - 7 - 1012.0 - -
24/08:00am 25.6 - - - - S 13 - 7 - 1012.0 1012.6 -
24/07:30am 26.0 - - - - S 17 - 9 - 1012.0 - -
24/07:00am 25.6 - - - - S 17 - 9 - 1012.0 1012.1 -
24/06:30am 25.0 - - - - SSW 20 - 11 - 1012.0 - -
24/06:00am 25.3 - - - - SSW 20 - 11 - 1011.0 1011.6 -
24/05:30am 25.0 - - - - SSW 22 - 12 - 1011.0 - -
24/05:00am 25.6 - - - - SSW 20 - 11 - 1011.0 1011.2 -
24/04:30am 26.0 - - - - SSW 19 - 10 - 1011.0 - -
24/04:00am 25.5 - - - - SSW 19 - 10 - 1010.0 1010.7 -
24/03:30am 26.0 - - - - S 20 - 11 - 1010.0 - -
24/03:00am 25.6 - - - - SSW 17 - 9 - 1010.0 1010.4 -
24/02:30am 26.0 - - - - SSW 20 - 11 - 1010.0 - -
24/02:00am 25.7 - - - - SSW 17 - 9 - 1010.0 1010.1 -
24/01:30am 26.0 - - - - SSW 15 - 8 - 1010.0 - -
24/01:00am 25.6 - - - - S 17 - 9 - 1010.0 1010.1 -
24/12:30am 26.0 - - - - S 17 - 9 - 1010.0 - -
24/12:00am 25.6 - - - - S 17 - 9 - 1010.0 1010.3 -
 
Date/Time
WST
Temp
°C
App
Temp
°C
Dew
Point
°C
Rel
Hum
%
Delta-T
°C
Wind Press
QNH
hPa
Press
MSL
hPa
Rain since
9am
mm
Dir  Spd
km/h
Gust
km/h
Spd
kts
Gust
kts
23/11:30pm 26.0 - - - - S 15 - 8 - 1010.0 - -
23/11:00pm 25.5 - - - - S 17 - 9 - 1010.0 1010.4 -
23/10:30pm 26.0 - - - - S 19 - 10 - 1010.0 - -
23/10:00pm 25.4 - - - - S 17 - 9 - 1010.0 1010.5 -
23/09:30pm 26.0 - - - - S 19 - 10 - 1010.0 - -
23/09:00pm 25.4 - - - - S 19 - 10 - 1010.0 1010.4 -
23/08:30pm 25.0 - - - - S 19 - 10 - 1010.0 - -
23/08:00pm 25.4 - - - - S 20 - 11 - 1010.0 1010.0 -
23/07:30pm 25.0 - - - - S 20 - 11 - 1009.0 - -
23/07:00pm 25.4 - - - - S 24 - 13 - 1009.0 1009.4 -
23/06:30pm 26.0 - - - - S 24 - 13 - 1009.0 - -
23/06:00pm 25.4 - - - - S 24 - 13 - 1009.0 1009.0 -
23/05:30pm 25.0 - - - - S 24 - 13 - 1009.0 - -
23/05:00pm 25.5 - - - - S 24 - 13 - 1008.0 1008.8 -
23/04:30pm 26.0 - - - - S 24 - 13 - 1008.0 - -
23/04:00pm 25.3 - - - - S 24 - 13 - 1008.0 1008.3 -
23/03:30pm 25.0 - - - - S 26 - 14 - 1008.0 - -
23/03:00pm 25.2 - - - - S 26 - 14 - 1008.0 1008.1 -
23/02:30pm 25.0 - - - - S 28 - 15 - 1008.0 - -
23/02:00pm 25.0 - - - - S 28 - 15 - 1008.0 1008.4 -
23/01:30pm 26.0 - - - - SSW 17 - 9 - 1008.0 - -
23/01:00pm 26.0 - - - - SSW 17 - 9 - 1009.0 1009.0 -
23/12:30pm 26.0 - - - - SSW 19 - 10 - 1009.0 - -
23/12:00pm 25.4 - - - - S 19 - 10 - 1009.0 1009.5 -
23/11:30am 25.0 - - - - S 19 - 10 - 1010.0 - -
23/11:00am 25.2 - - - - S 22 - 12 - 1010.0 1010.5 -
23/10:30am 26.0 - - - - SSW 28 - 15 - 1010.0 - -
23/10:00am 25.2 - - - - S 22 - 12 - 1011.0 1011.0 -
23/09:30am 26.0 - - - - S 19 - 10 - 1011.0 - -
23/09:00am 26.2 - - - - SW 19 - 10 - 1011.0 1011.4 -
23/08:30am 26.0 - - - - SW 22 - 12 - 1011.0 - -
23/08:00am 26.0 - - - - SW 17 - 9 - 1011.0 1011.1 -
23/07:30am 26.0 - - - - SSW 19 - 10 - 1011.0 - -
23/07:00am 25.9 - - - - SSW 19 - 10 - 1011.0 1011.0 -
23/06:30am 26.0 - - - - SW 24 - 13 - 1011.0 - -
23/06:00am 26.0 - - - - SW 26 - 14 - 1010.0 1010.7 -
23/05:30am 26.0 - - - - SSW 22 - 12 - 1010.0 - -
23/05:00am 26.0 - - - - SSW 28 - 15 - 1010.0 1009.9 -
23/04:30am 26.0 - - - - SSW 28 - 15 - 1009.0 - -
23/04:00am 25.8 - - - - SSW 28 - 15 - 1009.0 1009.6 -
23/03:30am 26.0 - - - - SSW 30 - 16 - 1009.0 - -
23/03:00am 25.8 - - - - SSW 30 - 16 - 1009.0 1009.3 -
23/02:30am 26.0 - - - - SSW 32 - 17 - 1009.0 - -
23/02:00am 25.8 - - - - SSW 30 - 16 - 1009.0 1009.2 -
23/01:30am 26.0 - - - - SW 30 - 16 - 1009.0 - -
23/01:00am 26.0 - - - - SSW 26 - 14 - 1009.0 1009.3 -
23/12:30am 26.0 - - - - SW 24 - 13 - 1009.0 - -
23/12:00am 26.0 - - - - SSW 20 - 11 - 1009.0 1009.5 -
 
Date/Time
WST
Temp
°C
App
Temp
°C
Dew
Point
°C
Rel
Hum
%
Delta-T
°C
Wind Press
QNH
hPa
Press
MSL
hPa
Rain since
9am
mm
Dir  Spd
km/h
Gust
km/h
Spd
kts
Gust
kts
22/11:30pm 26.0 - - - - SSW 22 - 12 - 1009.0 - -
22/11:00pm 26.3 - - - - SSW 24 - 13 - 1010.0 1009.9 -
22/10:30pm 26.0 - - - - SSW 22 - 12 - 1010.0 - -
22/10:00pm 26.4 - - - - SSW 22 - 12 - 1010.0 1010.0 -
22/09:30pm 26.0 - - - - SSW 22 - 12 - 1010.0 - -
22/09:00pm 26.4 - - - - SSW 22 - 12 - 1010.0 1010.3 -
22/08:30pm 26.0 - - - - SSW 24 - 13 - 1010.0 - -
22/08:00pm 26.7 - - - - SW 22 - 12 - 1010.0 1010.2 -
22/07:30pm 27.0 - - - - SSW 20 - 11 - 1009.0 - -
22/07:00pm 26.5 - - - - SW 22 - 12 - 1009.0 1009.6 -
22/06:30pm 26.0 - - - - SW 24 - 13 - 1009.0 - -
22/06:00pm 26.4 - - - - SW 24 - 13 - 1008.0 1008.8 -
22/05:30pm 27.0 - - - - SW 24 - 13 - 1008.0 - -
22/05:00pm 26.7 - - - - SW 24 - 13 - 1008.0 1008.2 -
22/04:30pm 27.0 - - - - SW 28 - 15 - 1008.0 - -

Other Formats:

Comma delimited format used in spreadsheet applications
http://www.bom.gov.au/fwo/IDW60801/IDW60801.94103.axf

JavaScript Object Notation format (JSON) in row-major order
http://www.bom.gov.au/fwo/IDW60801/IDW60801.94103.json